AirNav   Everest Fuels
 
 284 users online  

IN27 Culp Airport
Francesville, Indiana, USA


FAA INFORMATION EFFECTIVE 10 OCTOBER 2019

Location

FAA Identifier: IN27
Lat/Long: 40-59-59.2800N 086-54-47.3400W
40-59.988000N 086-54.789000W
40.9998000,-86.9131500
(estimated)
Elevation: 700 ft. / 213 m (estimated)
From city: 2 miles NW of FRANCESVILLE, IN
Time zone: UTC -4 (UTC -5 during Standard Time)
Zip code: 47946

Airport Operations

Airport use: Private use. Permission required prior to landing
Activation date: 03/2018
Control tower: no
ARTCC: CHICAGO CENTER
FSS: KANKAKEE FLIGHT SERVICE STATION
Attendance: 
Wind indicator: yes
Segmented circle: no

Airport Communications

WX AWOS-3P at RZL (13 nm W): 119.175 (219-866-7167)
WX AWOS-3P at MCX (19 nm S): 124.05 (574-583-0531)

Nearby radio navigation aids

VOR radial/distance  VOR name  Freq  Var
OXIr212/22.7KNOX VOR/DME115.6000E
BVTr014/27.5BOILER VORTAC115.1001E

 
NDB name  Hdg/Dist  Freq  Var  ID
LA PORTE195/30.635603WIUL .. ..- .-..

Airport Services

Runway Information

Runway 9/27

Dimensions: 1150 x 68 ft. / 351 x 21 m
Surface: turf, in fair condition
RUNWAY 9  RUNWAY 27
Traffic pattern: leftleft

Airport Ownership and Management from official FAA records

Ownership: Privately-owned
Owner: GARY CULP
3863 S. 1600 W.
FRANCESVILLE, IN 47946
Phone 219-869-1463
Manager: GARY CULP
3863 S. 1600 W.
FRANCESVILLE, IN 47946
Phone 219-869-1463

Airport Operational Statistics

Aircraft based on the field: 1
Single engine airplanes: 1
    

Additional Remarks

FOR CD CTC INDIANAPOLIS ARTCC AT 317-247-2411.

Instrument Procedures

There are no published instrument procedures at IN27.

Some nearby airports with instrument procedures:

KRZL - Jasper County Airport (13 nm W)
KRWN - Arens Field Airport (15 nm E)
KMCX - White County Airport (19 nm S)
KOXI - Starke County Airport (23 nm NE)
50I - Kentland Municipal Airport (28 nm SW)
 
Loc | Ops | Rwys | IFR | FBO | Links
Com | Nav | Svcs | Stats | Notes
Aerial photo
No photo
 
Airport distance calculator
Flying to Culp Airport? Find the distance to fly.

From to IN27

Sunrise and sunset
Times for 19-Oct-2019
 Local
(UTC-4)
 Zulu
(UTC)
Morning civil twilight07:3711:37
Sunrise08:0512:05
Sunset19:0123:01
Evening civil twilight19:2923:29

Current date and time
Zulu (UTC)  19-Oct-2019 08:10:17
Local (UTC-4)  19-Oct-2019 04:10:17
 
METAR
KRZL 
13nm W 
190755Z AUTO 00000KT 10SM CLR 05/02 A2992 RMK AO2
KMCX 
19nm S 
190755Z AUTO 12003KT 10SM CLR 06/02 A2993 RMK AO2 T00620017
KOXI 
23nm NE 
190755Z AUTO 10004KT 10SM CLR 03/01 A2993 RMK AO1
TAF
KLAF 
35nm S 
190520Z 1906/2006 VRB04KT P6SM SKC FM191700 18007KT P6SM FEW250 FM192300 VRB04KT P6SM SCT250 AMD LTD TO CLD VIS AND WIND TIL 191300
KGUS 
41nm SE 
190300Z 1903/2009 VRB06KT 9999 SKC QNH2979INS TX19/1920Z TN02/1911Z
KGYY 
43nm NW 
190526Z 1906/2006 15008KT P6SM SCT250 FM191700 19010KT P6SM BKN150 FM200400 29006KT P6SM SCT045 BKN070 OVC100
NOTAMs
Click for the latest NOTAMs
NOTAMs are issued by the DoD/FAA and will open in a separate window not controlled by AirNav.

 

 
 

Would you like to see your business listed on this page?

 If your business provides an interesting product or service to pilots, flight crews, aircraft, or users of the Culp Airport, you should consider listing it here.  To start the listing process, click on the button below
 
Add a business
 

Other Pages about Culp Airport

Update a link
 
Copyright © AirNav, LLC. All rights reserved. Privacy Policy  Contact